Time;durP1;ratioP1;P1;durP2;ratioP2;P2;SDS_P1;SDS_P2;PMS_P1;PMS_P2;Temp;Humidity;BMP_temperature;BMP_pressure;BME280_temperature;BME280_humidity;BME280_pressure;Samples;Min_cycle;Max_cycle;Signal;HPM_P1;HPM_P2
2021/09/07 00:01:34;;;;;;;2.90;2.65;;;20.60;63.00;;;;;;5061759;28;20056;-35
2021/09/07 00:04:00;;;;;;;3.33;3.03;;;20.60;63.50;;;;;;5059042;28;20029;-34
2021/09/07 00:06:26;;;;;;;3.38;3.08;;;20.70;63.90;;;;;;5061858;28;20029;-34
2021/09/07 00:08:52;;;;;;;3.60;3.30;;;20.70;64.10;;;;;;5063104;28;20564;-35
2021/09/07 00:11:18;;;;;;;3.47;3.15;;;20.70;64.30;;;;;;5061036;28;20021;-34
2021/09/07 00:13:44;;;;;;;3.20;2.90;;;20.80;64.60;;;;;;5057207;28;20048;-35
2021/09/07 00:16:11;;;;;;;3.38;3.08;;;20.80;64.70;;;;;;5052504;28;20027;-34
2021/09/07 00:18:37;;;;;;;3.20;2.90;;;20.80;64.80;;;;;;5061406;28;20040;-35
2021/09/07 00:21:03;;;;;;;2.90;2.63;;;20.80;64.70;;;;;;5052301;28;20031;-35
2021/09/07 00:23:29;;;;;;;2.97;2.78;;;20.90;65.00;;;;;;5050947;28;20026;-35
2021/09/07 00:25:55;;;;;;;3.15;2.85;;;20.90;65.40;;;;;;5057453;28;20152;-34
2021/09/07 00:28:22;;;;;;;3.53;3.22;;;20.90;65.30;;;;;;5063804;28;20806;-34
2021/09/07 00:30:48;;;;;;;3.40;3.10;;;20.90;65.60;;;;;;5056264;28;20058;-35
2021/09/07 00:33:14;;;;;;;2.97;2.70;;;21.00;65.60;;;;;;5051958;28;20033;-35
2021/09/07 00:35:40;;;;;;;4.15;3.30;;;21.00;65.80;;;;;;5055175;28;20541;-35
2021/09/07 00:38:06;;;;;;;3.30;2.97;;;21.00;65.70;;;;;;5063303;28;20037;-37
2021/09/07 00:40:32;;;;;;;3.28;2.97;;;21.00;65.90;;;;;;5049690;28;20021;-35
2021/09/07 00:42:59;;;;;;;3.38;3.08;;;21.10;66.10;;;;;;5059742;28;20029;-35
2021/09/07 00:45:25;;;;;;;3.35;3.05;;;21.10;66.70;;;;;;5065298;28;20028;-36
2021/09/07 00:47:51;;;;;;;3.50;3.20;;;21.10;66.70;;;;;;5057801;28;20048;-35
2021/09/07 00:50:17;;;;;;;3.85;3.30;;;21.10;66.80;;;;;;5068954;28;20116;-36
2021/09/07 00:52:43;;;;;;;3.40;3.10;;;21.20;66.40;;;;;;5062952;28;20029;-35
2021/09/07 00:55:10;;;;;;;3.55;3.17;;;21.20;66.20;;;;;;5063128;28;20561;-35
2021/09/07 00:57:36;;;;;;;3.47;3.17;;;21.20;66.00;;;;;;5062805;28;20052;-35
2021/09/07 01:00:07;;;;;;;3.80;3.40;;;21.20;66.00;;;;;;5045068;28;20044;-35
2021/09/07 01:02:33;;;;;;;3.42;3.10;;;21.20;65.90;;;;;;5062938;28;20025;-35
2021/09/07 01:04:59;;;;;;;3.50;3.20;;;21.30;65.90;;;;;;5048742;28;20542;-36
2021/09/07 01:07:25;;;;;;;4.53;3.35;;;21.30;66.00;;;;;;5043078;28;20040;-35
2021/09/07 01:09:51;;;;;;;3.55;3.13;;;21.30;66.70;;;;;;5046418;28;20036;-35
2021/09/07 01:12:17;;;;;;;3.75;3.38;;;21.40;66.60;;;;;;5062710;28;20039;-35
2021/09/07 01:14:44;;;;;;;4.00;3.60;;;21.40;66.80;;;;;;5062940;28;20065;-35
2021/09/07 01:17:17;;;;;;;3.53;3.22;;;21.40;66.60;;;;;;5063011;28;20033;-35
2021/09/07 01:19:46;;;;;;;3.42;2.95;;;21.40;66.70;;;;;;5056311;28;20025;-35
2021/09/07 01:22:13;;;;;;;3.53;3.22;;;21.50;66.80;;;;;;5054537;28;20026;-35
2021/09/07 01:24:39;;;;;;;4.07;3.30;;;21.50;66.80;;;;;;5060164;28;20033;-35
2021/09/07 01:27:05;;;;;;;3.70;3.40;;;21.50;66.70;;;;;;5056829;28;20537;-35
2021/09/07 01:29:33;;;;;;;3.50;3.20;;;21.50;66.50;;;;;;5040079;28;20036;-35
2021/09/07 01:31:59;;;;;;;3.67;3.38;;;21.60;66.80;;;;;;5062345;28;20092;-35
2021/09/07 01:34:26;;;;;;;3.25;2.95;;;21.60;66.80;;;;;;5062800;28;20022;-35
2021/09/07 01:36:52;;;;;;;3.83;3.47;;;21.60;66.80;;;;;;5049425;28;20025;-35
2021/09/07 01:39:21;;;;;;;3.83;3.40;;;21.60;66.60;;;;;;5072137;28;20024;-35
2021/09/07 01:41:48;;;;;;;4.20;3.55;;;21.60;66.70;;;;;;5062259;28;20037;-35
2021/09/07 01:44:14;;;;;;;3.88;3.45;;;21.60;66.80;;;;;;5062499;28;20017;-35
2021/09/07 01:46:40;;;;;;;4.32;3.92;;;21.70;66.90;;;;;;5061417;28;20048;-35
2021/09/07 01:49:09;;;;;;;3.78;3.47;;;21.70;67.00;;;;;;5057692;28;20029;-35
2021/09/07 01:51:37;;;;;;;3.80;3.45;;;21.70;67.10;;;;;;5061652;28;20172;-35
2021/09/07 01:54:04;;;;;;;3.78;3.47;;;21.70;67.30;;;;;;5061814;28;20038;-35
2021/09/07 01:56:30;;;;;;;4.00;3.47;;;21.70;67.40;;;;;;5061890;28;20071;-35
2021/09/07 01:58:56;;;;;;;3.80;3.13;;;21.70;67.20;;;;;;5061991;28;20048;-35
2021/09/07 02:01:22;;;;;;;4.97;3.58;;;21.70;67.30;;;;;;5061104;28;20052;-35
2021/09/07 02:03:49;;;;;;;3.97;3.50;;;21.80;67.30;;;;;;5058780;28;20033;-35
2021/09/07 02:06:15;;;;;;;3.97;3.58;;;21.80;67.30;;;;;;5062156;28;20375;-35
2021/09/07 02:08:41;;;;;;;4.57;3.67;;;21.80;67.20;;;;;;5061830;28;20084;-35
2021/09/07 02:11:07;;;;;;;4.22;3.53;;;21.80;67.10;;;;;;5062367;28;20029;-35
2021/09/07 02:13:34;;;;;;;4.38;3.75;;;21.80;66.90;;;;;;5061752;28;20021;-35
2021/09/07 02:16:00;;;;;;;3.85;3.55;;;21.80;66.80;;;;;;5062036;28;20493;-35
2021/09/07 02:18:26;;;;;;;4.20;3.70;;;21.90;66.80;;;;;;5061838;28;20041;-35
2021/09/07 02:20:52;;;;;;;4.50;4.10;;;21.90;66.70;;;;;;5048940;28;20026;-35
2021/09/07 02:23:18;;;;;;;4.13;3.72;;;21.90;67.30;;;;;;5058077;28;20028;-35
2021/09/07 02:25:44;;;;;;;4.35;3.95;;;21.90;66.70;;;;;;5060288;28;20491;-35
2021/09/07 02:28:11;;;;;;;4.13;3.70;;;21.90;66.80;;;;;;5049787;28;20040;-35
2021/09/07 02:30:38;;;;;;;3.88;3.58;;;21.90;67.00;;;;;;5062108;28;20504;-36
2021/09/07 02:33:04;;;;;;;4.05;3.55;;;21.90;67.00;;;;;;5069173;28;20038;-35
2021/09/07 02:35:33;;;;;;;3.75;3.45;;;22.00;67.20;;;;;;5063529;28;20033;-35
2021/09/07 02:37:59;;;;;;;3.90;3.55;;;22.00;67.40;;;;;;5052967;28;20049;-35
2021/09/07 02:40:25;;;;;;;4.55;3.97;;;22.00;67.60;;;;;;5059045;28;20053;-35
2021/09/07 02:42:52;;;;;;;3.67;3.38;;;22.00;67.60;;;;;;5061536;28;20025;-35
2021/09/07 02:45:18;;;;;;;4.28;3.88;;;22.00;67.40;;;;;;5058175;28;20092;-35
2021/09/07 02:47:44;;;;;;;4.25;3.85;;;22.00;67.40;;;;;;5056776;28;20041;-35
2021/09/07 02:50:11;;;;;;;4.53;4.00;;;22.00;67.30;;;;;;5061655;28;20041;-35
2021/09/07 02:52:38;;;;;;;4.00;3.60;;;22.00;67.40;;;;;;5061620;28;20060;-35
2021/09/07 02:55:05;;;;;;;5.00;4.10;;;22.10;67.40;;;;;;5061434;28;20029;-35
2021/09/07 02:57:31;;;;;;;4.38;3.65;;;22.10;67.30;;;;;;5054134;28;20041;-35
2021/09/07 02:59:57;;;;;;;4.30;3.90;;;22.10;67.00;;;;;;5061669;28;20045;-36
2021/09/07 03:02:27;;;;;;;4.55;4.15;;;22.10;66.80;;;;;;5062051;28;20056;-35
2021/09/07 03:04:53;;;;;;;4.50;4.10;;;22.10;66.70;;;;;;5064560;28;20787;-35
2021/09/07 03:07:19;;;;;;;4.65;4.18;;;22.10;66.60;;;;;;5064491;28;20044;-35
2021/09/07 03:09:45;;;;;;;4.65;3.95;;;22.10;66.50;;;;;;5065356;28;20028;-35
2021/09/07 03:12:11;;;;;;;4.40;3.90;;;22.10;66.50;;;;;;5065041;28;20037;-35
2021/09/07 03:14:38;;;;;;;4.65;4.25;;;22.10;66.60;;;;;;5065078;28;20092;-35
2021/09/07 03:17:04;;;;;;;4.47;4.07;;;22.10;66.60;;;;;;5064933;28;20040;-35
2021/09/07 03:19:30;;;;;;;4.70;4.30;;;22.10;66.80;;;;;;5064526;28;20294;-36
2021/09/07 03:21:56;;;;;;;4.60;4.03;;;22.10;66.80;;;;;;5065263;28;20032;-35
2021/09/07 03:24:23;;;;;;;5.15;4.30;;;22.10;66.80;;;;;;5058628;28;20036;-35
2021/09/07 03:26:49;;;;;;;4.18;3.78;;;22.20;66.70;;;;;;5065173;28;20037;-35
2021/09/07 03:29:15;;;;;;;3.60;3.30;;;22.10;65.50;;;;;;5065182;28;20043;-35
2021/09/07 03:31:41;;;;;;;3.95;3.55;;;22.20;64.50;;;;;;5060496;28;20033;-35
2021/09/07 03:34:07;;;;;;;3.75;3.45;;;22.10;64.30;;;;;;5070281;28;20017;-35
2021/09/07 03:36:33;;;;;;;4.90;3.70;;;22.10;64.20;;;;;;5073506;28;20055;-35
2021/09/07 03:39:00;;;;;;;4.25;3.85;;;22.10;64.50;;;;;;5064675;28;20025;-35
2021/09/07 03:41:26;;;;;;;4.22;3.83;;;22.10;65.00;;;;;;5065095;28;20140;-35
2021/09/07 03:43:52;;;;;;;4.43;4.00;;;22.10;65.20;;;;;;5063298;28;20032;-35
2021/09/07 03:46:18;;;;;;;5.13;4.18;;;22.10;65.20;;;;;;5064429;28;20029;-35
2021/09/07 03:48:44;;;;;;;4.30;3.88;;;22.10;65.20;;;;;;5059306;28;20036;-35
2021/09/07 03:51:10;;;;;;;4.20;3.65;;;22.10;65.20;;;;;;5048834;28;20025;-35
2021/09/07 03:53:37;;;;;;;4.55;4.10;;;22.10;65.20;;;;;;5063981;28;20035;-35
2021/09/07 03:56:03;;;;;;;4.45;4.05;;;22.10;65.30;;;;;;5071179;28;20049;-35
2021/09/07 03:58:29;;;;;;;4.00;3.70;;;22.10;65.50;;;;;;5064885;28;20029;-35
2021/09/07 04:00:55;;;;;;;4.40;3.95;;;22.10;65.50;;;;;;5064692;28;20029;-35
2021/09/07 04:03:21;;;;;;;4.05;3.60;;;22.20;65.70;;;;;;5057175;28;20032;-35
2021/09/07 04:05:48;;;;;;;4.30;3.70;;;22.10;65.70;;;;;;5063765;28;20505;-36
2021/09/07 04:08:15;;;;;;;4.95;4.03;;;22.20;65.80;;;;;;5047105;28;20040;-35
2021/09/07 04:10:41;;;;;;;4.47;4.00;;;22.20;65.80;;;;;;5058712;28;20033;-35
2021/09/07 04:13:07;;;;;;;4.20;3.80;;;22.20;65.90;;;;;;5068989;28;20092;-35
2021/09/07 04:15:34;;;;;;;3.85;3.38;;;22.20;65.90;;;;;;5063227;28;20107;-35
2021/09/07 04:18:00;;;;;;;4.55;4.15;;;22.20;65.80;;;;;;5064124;28;20104;-35
2021/09/07 04:20:26;;;;;;;4.72;3.83;;;22.20;65.80;;;;;;5064098;28;20048;-35
2021/09/07 04:22:52;;;;;;;4.47;4.07;;;22.20;66.50;;;;;;5061166;28;20037;-35
2021/09/07 04:25:18;;;;;;;4.35;3.95;;;22.20;65.70;;;;;;5061381;28;20022;-35
2021/09/07 04:27:45;;;;;;;4.22;3.83;;;22.20;65.60;;;;;;5063769;28;20040;-35
2021/09/07 04:30:11;;;;;;;4.22;3.83;;;22.20;65.60;;;;;;5063352;28;20028;-35
2021/09/07 04:32:37;;;;;;;4.73;4.27;;;22.20;65.50;;;;;;5064035;28;20029;-35
2021/09/07 04:35:04;;;;;;;4.67;4.13;;;22.20;65.50;;;;;;5063817;28;20913;-35
2021/09/07 04:37:30;;;;;;;4.68;4.18;;;22.20;65.50;;;;;;5061437;28;20166;-35
2021/09/07 04:39:57;;;;;;;4.47;3.85;;;22.20;65.40;;;;;;5053271;28;20032;-35
2021/09/07 04:42:23;;;;;;;3.78;3.47;;;22.20;65.50;;;;;;5064085;28;20067;-35
2021/09/07 04:44:49;;;;;;;4.78;4.25;;;22.20;65.70;;;;;;5069105;28;20020;-35
2021/09/07 04:47:15;;;;;;;4.63;4.22;;;22.20;65.70;;;;;;5061013;28;20041;-35
2021/09/07 04:49:41;;;;;;;4.55;4.10;;;22.20;65.70;;;;;;5063660;28;20043;-35
2021/09/07 04:52:08;;;;;;;4.72;4.25;;;22.20;65.80;;;;;;5056448;28;20033;-35
2021/09/07 04:54:34;;;;;;;5.07;3.80;;;22.20;65.80;;;;;;5062290;28;20665;-35
2021/09/07 04:57:01;;;;;;;4.20;3.80;;;22.20;65.80;;;;;;5063042;28;20530;-36
2021/09/07 04:59:27;;;;;;;;;;;22.20;65.80;;;;;;5063954;28;20059;-35
2021/09/07 05:01:53;;;;;;;5.30;4.00;;;22.20;65.30;;;;;;5058093;28;19908;-35
2021/09/07 05:04:19;;;;;;;4.20;3.80;;;22.20;64.20;;;;;;5055107;28;20030;-35
2021/09/07 05:06:45;;;;;;;4.70;4.20;;;22.20;63.80;;;;;;5070501;28;20570;-35
2021/09/07 05:09:12;;;;;;;4.05;3.65;;;22.20;63.80;;;;;;5063403;28;20033;-35
2021/09/07 05:11:38;;;;;;;5.47;4.15;;;22.20;63.80;;;;;;5063189;28;20041;-35
2021/09/07 05:14:06;;;;;;;4.78;4.38;;;22.20;64.30;;;;;;5062832;28;20088;-35
2021/09/07 05:16:32;;;;;;;4.20;3.78;;;22.20;64.60;;;;;;5063168;28;20025;-35
2021/09/07 05:18:58;;;;;;;4.07;3.67;;;22.20;64.80;;;;;;5048632;28;20029;-35
2021/09/07 05:21:24;;;;;;;4.35;3.95;;;22.20;65.00;;;;;;5060818;28;20029;-35
2021/09/07 05:23:50;;;;;;;4.35;3.92;;;22.20;65.10;;;;;;5056869;28;20028;-35
2021/09/07 05:26:17;;;;;;;4.60;4.20;;;22.20;65.20;;;;;;5063060;28;20398;-35
2021/09/07 05:28:44;;;;;;;4.90;4.22;;;22.20;65.30;;;;;;5062620;28;20029;-35
2021/09/07 05:31:10;;;;;;;4.35;3.60;;;22.20;65.30;;;;;;5047043;28;20508;-35
2021/09/07 05:33:36;;;;;;;4.32;3.92;;;22.20;65.30;;;;;;5062346;28;20044;-35
2021/09/07 05:36:02;;;;;;;4.20;3.80;;;22.20;65.30;;;;;;5062491;28;20040;-35
2021/09/07 05:38:29;;;;;;;4.65;4.22;;;22.20;65.30;;;;;;5062701;28;20056;-35
2021/09/07 05:40:55;;;;;;;4.10;3.70;;;22.20;65.30;;;;;;5062506;28;20021;-35
2021/09/07 05:43:21;;;;;;;4.50;4.10;;;22.20;65.30;;;;;;5062448;28;20039;-35
2021/09/07 05:45:47;;;;;;;4.57;4.10;;;22.20;65.20;;;;;;5062402;28;20128;-35
2021/09/07 05:48:13;;;;;;;4.30;3.90;;;22.20;65.20;;;;;;5056769;28;20098;-35
2021/09/07 05:50:39;;;;;;;4.40;4.00;;;22.20;65.20;;;;;;5062505;28;20029;-35
2021/09/07 05:53:06;;;;;;;4.32;3.92;;;22.20;65.20;;;;;;5062580;28;20043;-35
2021/09/07 05:55:32;;;;;;;4.57;4.17;;;22.20;65.20;;;;;;5055759;28;20059;-35
2021/09/07 05:57:59;;;;;;;3.97;3.60;;;22.20;65.10;;;;;;5061523;28;20044;-35
2021/09/07 06:00:25;;;;;;;4.82;4.10;;;22.20;65.10;;;;;;5061635;28;20029;-35
2021/09/07 06:02:52;;;;;;;4.38;3.97;;;22.20;65.10;;;;;;5062225;28;20053;-35
2021/09/07 06:05:18;;;;;;;4.25;3.85;;;22.20;65.10;;;;;;5055332;28;20040;-35
2021/09/07 06:07:44;;;;;;;3.97;3.58;;;22.20;65.10;;;;;;5058064;28;21385;-35
2021/09/07 06:10:11;;;;;;;4.28;3.88;;;22.20;65.10;;;;;;5051536;28;20025;-35
2021/09/07 06:12:37;;;;;;;3.97;3.57;;;22.20;65.20;;;;;;5062490;28;20100;-35
2021/09/07 06:15:04;;;;;;;3.67;3.38;;;22.20;65.20;;;;;;5047435;28;20033;-35
2021/09/07 06:17:30;;;;;;;4.15;3.75;;;22.20;65.10;;;;;;5060853;28;20032;-35
2021/09/07 06:19:56;;;;;;;4.10;3.70;;;22.20;65.20;;;;;;5061901;28;20033;-35
2021/09/07 06:22:22;;;;;;;4.40;4.00;;;22.20;65.20;;;;;;5072637;28;20029;-35
2021/09/07 06:24:49;;;;;;;3.92;3.60;;;22.20;65.10;;;;;;5061939;28;20048;-35
2021/09/07 06:27:15;;;;;;;4.00;3.60;;;22.20;65.20;;;;;;5059428;28;20041;-35
2021/09/07 06:29:41;;;;;;;4.03;3.72;;;22.20;65.30;;;;;;5060458;28;20034;-35
2021/09/07 06:32:08;;;;;;;4.28;3.95;;;22.20;65.20;;;;;;5062115;28;20070;-35
2021/09/07 06:34:34;;;;;;;4.35;3.95;;;22.20;65.10;;;;;;5061269;28;20017;-35
2021/09/07 06:37:01;;;;;;;4.15;3.75;;;22.20;65.10;;;;;;5061993;28;20021;-35
2021/09/07 06:39:27;;;;;;;4.18;3.78;;;22.20;65.20;;;;;;5063026;28;20025;-35
2021/09/07 06:41:53;;;;;;;4.40;4.00;;;22.20;65.10;;;;;;5066223;28;20033;-36
2021/09/07 06:44:19;;;;;;;4.32;3.92;;;22.20;65.10;;;;;;5066440;28;20028;-35
2021/09/07 06:46:46;;;;;;;4.13;3.75;;;22.20;65.10;;;;;;5066284;28;20092;-35
2021/09/07 06:49:12;;;;;;;3.78;3.38;;;22.30;65.20;;;;;;5065919;28;20024;-36
2021/09/07 06:51:38;;;;;;;3.85;3.55;;;22.20;65.20;;;;;;5066319;28;20032;-35
2021/09/07 06:54:04;;;;;;;3.92;3.53;;;22.20;65.10;;;;;;5066104;28;20037;-35
2021/09/07 06:56:30;;;;;;;4.13;3.70;;;22.20;65.10;;;;;;5065717;28;20053;-35
2021/09/07 06:58:56;;;;;;;4.30;3.90;;;22.20;65.10;;;;;;5065970;28;20035;-35
2021/09/07 07:01:23;;;;;;;4.10;3.70;;;22.20;65.00;;;;;;5065927;28;20076;-35
2021/09/07 07:03:49;;;;;;;4.05;3.70;;;22.20;65.10;;;;;;5086019;28;20092;-35
2021/09/07 07:06:15;;;;;;;4.97;3.78;;;22.20;65.10;;;;;;5085935;28;20036;-35
2021/09/07 07:08:41;;;;;;;4.32;3.92;;;22.20;65.20;;;;;;5085389;28;20066;-35
2021/09/07 07:11:07;;;;;;;3.90;3.60;;;22.30;65.30;;;;;;5060333;28;20028;-35
2021/09/07 07:13:33;;;;;;;4.85;4.05;;;22.30;65.30;;;;;;5053452;28;20029;-36
2021/09/07 07:16:00;;;;;;;4.07;3.67;;;22.20;65.20;;;;;;5085783;28;20067;-35
2021/09/07 07:18:26;;;;;;;4.28;3.88;;;22.30;65.30;;;;;;5085643;28;20025;-36
2021/09/07 07:20:52;;;;;;;4.30;3.90;;;22.30;65.20;;;;;;5067964;28;20025;-36
2021/09/07 07:23:18;;;;;;;4.20;3.80;;;22.30;65.20;;;;;;5065622;28;20486;-35
2021/09/07 07:25:44;;;;;;;4.32;3.92;;;22.30;65.20;;;;;;5063914;28;20025;-36
2021/09/07 07:28:10;;;;;;;5.43;4.20;;;22.30;65.30;;;;;;5045683;28;20037;-36
2021/09/07 07:30:37;;;;;;;4.43;4.03;;;22.30;65.30;;;;;;5060155;28;20845;-35
2021/09/07 07:33:03;;;;;;;4.05;3.65;;;22.30;65.20;;;;;;5065521;28;20029;-44
2021/09/07 07:35:29;;;;;;;4.03;3.63;;;22.20;65.10;;;;;;5065453;28;20048;-35
2021/09/07 07:37:55;;;;;;;5.35;4.15;;;22.30;65.10;;;;;;5085116;28;20094;-36
2021/09/07 07:40:22;;;;;;;4.00;3.58;;;22.30;65.20;;;;;;5071491;28;20036;-35
2021/09/07 07:42:48;;;;;;;4.25;3.85;;;22.30;65.30;;;;;;5065152;28;20025;-36
2021/09/07 07:45:14;;;;;;;4.40;4.00;;;22.30;65.30;;;;;;5065136;28;20035;-35
2021/09/07 07:47:40;;;;;;;4.10;3.70;;;22.30;65.30;;;;;;5065241;28;20140;-36
2021/09/07 07:50:07;;;;;;;4.78;4.35;;;22.20;65.30;;;;;;5061472;28;20124;-36
2021/09/07 07:52:33;;;;;;;4.28;3.88;;;22.30;65.40;;;;;;5064110;28;20055;-35
2021/09/07 07:55:02;;;;;;;4.13;3.72;;;22.30;65.40;;;;;;5065011;28;20029;-36
2021/09/07 07:57:31;;;;;;;4.65;4.22;;;22.30;65.40;;;;;;5049253;28;20506;-35
2021/09/07 07:59:57;;;;;;;4.05;3.65;;;22.30;65.40;;;;;;5053931;28;20808;-35
2021/09/07 08:02:23;;;;;;;4.22;3.83;;;22.30;65.40;;;;;;5064900;28;20025;-35
2021/09/07 08:04:49;;;;;;;4.10;3.70;;;22.30;65.30;;;;;;5064907;28;20024;-35
2021/09/07 08:07:17;;;;;;;3.85;3.47;;;22.30;65.30;;;;;;5064422;28;20033;-35
2021/09/07 08:09:43;;;;;;;4.13;3.72;;;22.30;65.40;;;;;;5064296;28;20108;-35
2021/09/07 08:12:09;;;;;;;4.80;4.40;;;22.20;65.30;;;;;;5063885;28;20029;-35
2021/09/07 08:14:36;;;;;;;4.05;3.60;;;22.30;66.10;;;;;;5064455;28;20051;-36
2021/09/07 08:17:02;;;;;;;4.25;3.85;;;22.30;65.40;;;;;;5064712;28;20064;-35
2021/09/07 08:19:28;;;;;;;4.28;3.88;;;22.30;65.40;;;;;;5064146;28;20025;-35
2021/09/07 08:21:54;;;;;;;4.35;3.95;;;22.30;65.40;;;;;;5064308;28;20033;-35
2021/09/07 08:24:21;;;;;;;4.18;3.78;;;22.30;65.40;;;;;;5064263;28;20033;-36
2021/09/07 08:26:47;;;;;;;3.88;3.47;;;22.30;65.50;;;;;;5063999;28;20168;-35
2021/09/07 08:29:13;;;;;;;4.13;3.75;;;22.30;65.50;;;;;;5064443;28;20036;-35
2021/09/07 08:31:39;;;;;;;3.95;3.60;;;22.30;65.50;;;;;;5062528;28;20025;-35
2021/09/07 08:34:05;;;;;;;4.05;3.75;;;22.30;65.60;;;;;;5064217;28;20029;-35
2021/09/07 08:36:32;;;;;;;4.05;3.67;;;22.30;66.40;;;;;;5063793;28;20035;-35
2021/09/07 08:38:58;;;;;;;3.80;3.50;;;22.30;65.60;;;;;;5066494;28;20017;-35
2021/09/07 08:41:24;;;;;;;4.00;3.60;;;22.30;65.50;;;;;;5063472;28;20021;-35
2021/09/07 08:43:50;;;;;;;4.72;4.20;;;22.20;65.40;;;;;;5063957;28;20115;-35
2021/09/07 08:46:17;;;;;;;4.25;3.85;;;22.30;65.50;;;;;;5046041;28;20035;-35
2021/09/07 08:48:45;;;;;;;4.10;3.70;;;22.20;65.40;;;;;;5064188;28;20044;-35
2021/09/07 08:51:11;;;;;;;4.30;3.90;;;22.30;65.50;;;;;;5045755;28;20932;-35
2021/09/07 08:53:37;;;;;;;4.18;3.80;;;22.30;65.50;;;;;;5045814;28;20032;-35
2021/09/07 08:56:07;;;;;;;4.57;4.18;;;22.30;65.50;;;;;;5059274;28;20036;-35
2021/09/07 08:58:33;;;;;;;4.10;3.78;;;22.30;65.60;;;;;;5043995;28;20030;-35
2021/09/07 09:01:12;;;;;;;4.07;3.67;;;22.30;65.60;;;;;;5063307;28;20055;-35
2021/09/07 09:03:48;;;;;;;3.97;3.60;;;22.30;65.70;;;;;;5063513;28;20035;-35
2021/09/07 09:06:24;;;;;;;4.15;3.75;;;22.30;65.70;;;;;;5045068;28;20028;-36
2021/09/07 09:09:02;;;;;;;4.40;4.00;;;22.30;65.80;;;;;;5062939;28;20502;-35
2021/09/07 09:11:29;;;;;;;4.38;3.85;;;22.30;65.80;;;;;;5046192;28;20029;-35
2021/09/07 09:13:56;;;;;;;4.32;3.90;;;22.20;65.70;;;;;;5063375;28;20671;-35
2021/09/07 09:16:22;;;;;;;4.35;3.95;;;22.30;65.80;;;;;;5045116;28;20025;-35
2021/09/07 09:18:48;;;;;;;4.10;3.70;;;22.20;65.70;;;;;;5062836;28;20037;-36
2021/09/07 09:21:28;;;;;;;4.03;3.63;;;22.30;65.70;;;;;;5062942;28;20029;-35
2021/09/07 09:24:14;;;;;;;4.60;4.20;;;22.30;65.70;;;;;;5055269;28;20041;-36
2021/09/07 09:26:59;;;;;;;3.83;3.53;;;22.30;65.70;;;;;;5054154;28;20040;-35
2021/09/07 09:29:30;;;;;;;4.10;3.70;;;22.20;65.60;;;;;;5056510;28;20025;-35
2021/09/07 09:32:07;;;;;;;3.88;3.58;;;22.30;65.70;;;;;;5062539;28;20040;-35
2021/09/07 09:34:36;;;;;;;4.38;3.97;;;22.20;65.60;;;;;;5062489;28;20021;-35
2021/09/07 09:37:12;;;;;;;4.80;4.30;;;22.30;65.70;;;;;;5061969;28;20151;-35
2021/09/07 09:39:42;;;;;;;4.00;3.60;;;22.20;65.70;;;;;;5056555;28;20116;-36
2021/09/07 09:42:13;;;;;;;4.40;4.00;;;22.20;65.70;;;;;;5062128;28;20094;-35
2021/09/07 09:44:39;;;;;;;4.45;4.00;;;22.30;65.90;;;;;;5061675;28;20021;-35
2021/09/07 09:47:05;;;;;;;4.45;4.05;;;22.30;65.90;;;;;;5061786;28;20104;-35
2021/09/07 09:49:32;;;;;;;3.78;3.47;;;22.30;65.90;;;;;;5061378;28;20037;-35
2021/09/07 09:52:06;;;;;;;4.38;3.97;;;22.30;66.00;;;;;;5029109;28;20029;-36
2021/09/07 09:54:32;;;;;;;4.25;3.85;;;22.30;65.90;;;;;;5058702;28;20501;-35
2021/09/07 09:56:59;;;;;;;4.10;3.70;;;22.30;66.00;;;;;;5061718;28;20056;-36
2021/09/07 09:59:28;;;;;;;4.38;3.97;;;22.30;65.90;;;;;;5044348;28;20071;-35
2021/09/07 10:01:58;;;;;;;4.15;3.75;;;22.30;66.00;;;;;;5061830;28;20043;-35
2021/09/07 10:04:26;;;;;;;3.88;3.58;;;22.30;65.90;;;;;;5061286;28;20131;-35
2021/09/07 10:06:52;;;;;;;4.10;3.80;;;22.30;65.90;;;;;;5058928;28;20049;-35
2021/09/07 10:09:22;;;;;;;4.15;3.70;;;22.30;66.00;;;;;;5044331;28;20055;-35
2021/09/07 10:11:50;;;;;;;3.65;3.35;;;22.30;65.90;;;;;;5042153;28;20398;-36
2021/09/07 10:14:18;;;;;;;4.25;3.85;;;22.20;65.90;;;;;;5058765;28;20025;-35
2021/09/07 10:16:53;;;;;;;3.75;3.45;;;22.30;66.00;;;;;;5044042;28;20029;-35
2021/09/07 10:19:47;;;;;;;4.25;3.85;;;22.20;65.90;;;;;;5061115;28;20037;-35
2021/09/07 10:25:46;;;;;;;;;;;22.30;66.20;;;;;;5044292;28;20024;-35
2021/09/07 10:28:12;;;;;;;3.72;3.42;;;22.30;66.10;;;;;;5042525;28;19921;-35
2021/09/07 10:30:58;;;;;;;3.88;3.47;;;22.30;66.20;;;;;;5054368;28;20511;-35
2021/09/07 10:33:33;;;;;;;4.55;4.15;;;22.20;66.10;;;;;;5061621;28;20024;-36
2021/09/07 10:36:08;;;;;;;4.57;3.90;;;22.20;66.10;;;;;;5060345;28;20029;-35
2021/09/07 10:38:44;;;;;;;4.60;4.15;;;22.20;66.10;;;;;;5062004;28;20036;-35
2021/09/07 10:41:11;;;;;;;4.20;3.80;;;22.30;66.20;;;;;;5061168;28;20033;-36
2021/09/07 10:43:59;;;;;;;4.10;3.70;;;22.20;66.10;;;;;;5044096;28;20033;-35
2021/09/07 10:46:41;;;;;;;4.05;3.65;;;22.30;66.10;;;;;;5061600;28;20072;-35
2021/09/07 10:49:43;;;;;;;4.40;4.00;;;22.20;66.00;;;;;;5062088;28;20061;-35
2021/09/07 10:52:17;;;;;;;4.47;4.10;;;22.30;66.10;;;;;;5061729;28;20035;-35
2021/09/07 10:54:52;;;;;;;4.38;3.97;;;22.20;66.10;;;;;;5043340;28;20025;-35
2021/09/07 10:57:49;;;;;;;4.15;3.60;;;22.30;66.10;;;;;;5060898;28;20045;-35
2021/09/07 11:00:21;;;;;;;4.00;3.60;;;22.20;66.10;;;;;;5061488;28;20036;-36
2021/09/07 11:02:56;;;;;;;4.22;3.83;;;22.20;66.10;;;;;;5061570;28;20029;-35
2021/09/07 11:05:25;;;;;;;4.22;3.67;;;22.20;66.20;;;;;;5061230;28;20055;-35
2021/09/07 11:07:53;;;;;;;3.75;3.45;;;22.30;66.30;;;;;;5058074;28;20051;-35
2021/09/07 11:10:25;;;;;;;3.92;3.45;;;22.20;66.20;;;;;;5043045;28;20040;-35
2021/09/07 11:12:58;;;;;;;4.38;3.97;;;22.20;66.20;;;;;;5045639;28;20040;-35
2021/09/07 11:15:25;;;;;;;4.00;3.70;;;22.20;66.30;;;;;;5061376;28;20021;-35
2021/09/07 11:17:55;;;;;;;4.07;3.67;;;22.20;66.20;;;;;;5061140;28;20056;-35
2021/09/07 11:20:25;;;;;;;4.20;3.80;;;22.20;66.20;;;;;;5027566;28;20057;-36
2021/09/07 11:22:51;;;;;;;4.22;3.83;;;22.20;66.10;;;;;;5027979;28;20075;-35
2021/09/07 11:25:20;;;;;;;4.22;3.83;;;22.20;66.10;;;;;;5058559;28;20493;-35
2021/09/07 11:27:58;;;;;;;4.38;3.85;;;22.30;66.30;;;;;;5063992;28;20166;-35
2021/09/07 11:30:30;;;;;;;4.28;3.78;;;22.30;66.50;;;;;;5052156;28;20572;-36
2021/09/07 11:33:01;;;;;;;4.40;3.75;;;22.30;66.50;;;;;;5064383;28;20107;-36
2021/09/07 11:35:28;;;;;;;3.85;3.55;;;22.30;66.40;;;;;;5063829;28;20052;-36
2021/09/07 11:37:58;;;;;;;4.03;3.63;;;22.30;66.40;;;;;;5063966;28;20032;-36
2021/09/07 11:40:24;;;;;;;4.15;3.75;;;22.30;66.40;;;;;;5064069;28;20056;-36
2021/09/07 11:42:51;;;;;;;4.60;3.83;;;22.30;66.40;;;;;;5064381;28;20083;-36
2021/09/07 11:45:24;;;;;;;4.07;3.67;;;22.30;66.40;;;;;;5064595;28;20024;-36
2021/09/07 11:47:50;;;;;;;4.03;3.63;;;22.30;66.50;;;;;;5064082;28;20137;-36
2021/09/07 11:50:21;;;;;;;4.65;4.25;;;22.30;66.40;;;;;;5048819;28;20033;-36
2021/09/07 11:52:48;;;;;;;4.50;4.00;;;22.20;66.40;;;;;;5047862;28;20031;-36
2021/09/07 11:55:40;;;;;;;4.30;3.90;;;22.30;66.40;;;;;;5042634;28;20056;-36
2021/09/07 11:58:08;;;;;;;5.10;3.90;;;22.30;66.50;;;;;;5079307;28;20063;-36
2021/09/07 12:00:34;;;;;;;4.40;4.00;;;22.30;66.40;;;;;;5066322;28;20036;-36
2021/09/07 12:03:13;;;;;;;4.68;3.75;;;22.30;66.50;;;;;;5064484;28;20043;-36
2021/09/07 12:05:56;;;;;;;4.30;3.90;;;22.30;66.40;;;;;;5042794;28;20025;-37
2021/09/07 12:08:32;;;;;;;4.25;3.90;;;22.30;66.50;;;;;;5047079;28;20048;-36
2021/09/07 12:10:58;;;;;;;4.07;3.67;;;22.30;66.40;;;;;;5063635;28;20025;-35
2021/09/07 12:13:25;;;;;;;3.85;3.55;;;22.30;66.40;;;;;;5046215;28;20120;-36
2021/09/07 12:15:51;;;;;;;4.22;3.83;;;22.30;66.40;;;;;;5064070;28;20040;-36
2021/09/07 12:18:31;;;;;;;2.97;2.67;;;22.30;66.40;;;;;;5063813;28;20581;-36
2021/09/07 12:21:24;;;;;;;4.75;4.28;;;22.30;66.40;;;;;;5048992;28;20028;-36
2021/09/07 12:23:51;;;;;;;4.30;3.85;;;22.30;66.50;;;;;;5049665;28;20048;-36
2021/09/07 12:26:17;;;;;;;7.32;5.03;;;22.30;66.50;;;;;;5059607;28;20045;-36
2021/09/07 12:28:44;;;;;;;4.82;4.32;;;22.30;66.50;;;;;;5047907;28;20029;-36
2021/09/07 12:31:21;;;;;;;4.33;3.93;;;22.30;66.50;;;;;;5066793;28;20126;-36
2021/09/07 12:33:49;;;;;;;4.68;4.28;;;22.30;66.50;;;;;;5063690;28;20052;-36
2021/09/07 12:36:24;;;;;;;4.70;4.30;;;22.30;66.50;;;;;;5062140;28;20475;-36
2021/09/07 12:38:51;;;;;;;4.55;4.13;;;22.30;66.50;;;;;;5040898;28;20052;-36
2021/09/07 12:41:20;;;;;;;5.97;4.13;;;22.30;66.50;;;;;;5083658;28;20024;-36
2021/09/07 12:43:49;;;;;;;5.00;4.53;;;22.30;66.40;;;;;;5083847;28;20025;-36
2021/09/07 12:46:19;;;;;;;4.45;4.05;;;22.30;66.40;;;;;;5083751;28;20096;-36
2021/09/07 12:48:49;;;;;;;4.47;4.07;;;22.30;66.40;;;;;;5065730;28;20032;-36
2021/09/07 12:51:18;;;;;;;5.30;4.10;;;22.30;66.40;;;;;;5063762;28;20025;-37
2021/09/07 12:56:15;;;;;;;4.47;4.07;;;22.30;66.50;;;;;;5063597;28;20417;-36
2021/09/07 12:58:53;;;;;;;4.80;4.30;;;22.30;66.50;;;;;;5062962;28;20044;-36